createdAt,value
2023-01-27T00:00:32.963Z,101577.63
2023-01-27T00:06:01.442Z,101576.88
2023-01-27T00:11:41.972Z,101574.81
2023-01-27T00:17:07.024Z,101564.41
2023-01-27T00:22:47.687Z,101551.25
2023-01-27T00:28:23.020Z,101552.28
2023-01-27T00:33:54.240Z,101550.81
2023-01-27T00:39:23.132Z,101533.94
2023-01-27T00:45:05.812Z,101535.72
2023-01-27T00:50:36.054Z,101526.72
2023-01-27T00:56:04.717Z,101516.00
2023-01-27T01:01:35.041Z,101525.31
2023-01-27T01:07:04.429Z,101517.03
2023-01-27T01:12:28.409Z,101512.47
2023-01-27T01:17:52.417Z,101497.94
2023-01-27T01:23:23.063Z,101491.47
2023-01-27T01:28:51.916Z,101475.19
2023-01-27T01:34:20.662Z,101477.09
2023-01-27T01:39:51.227Z,101478.06
2023-01-27T01:45:52.897Z,101484.94
2023-01-27T01:51:25.923Z,101476.63
2023-01-27T01:57:03.696Z,101464.63
2023-01-27T02:02:34.945Z,101455.28
2023-01-27T02:08:13.325Z,101446.84
2023-01-27T02:13:44.326Z,101445.91
2023-01-27T02:19:20.091Z,101442.19
2023-01-27T02:24:54.288Z,101454.06
2023-01-27T02:30:25.041Z,101462.13
2023-01-27T02:36:02.057Z,101470.31
2023-01-27T02:41:36.255Z,101471.47
2023-01-27T02:47:06.336Z,101466.06
2023-01-27T02:52:35.779Z,101457.22
2023-01-27T02:58:04.822Z,101460.25
2023-01-27T03:03:47.379Z,101454.34
2023-01-27T03:09:20.866Z,101453.25
2023-01-27T03:15:09.672Z,101432.28
2023-01-27T03:20:40.835Z,101430.00
2023-01-27T03:26:10.985Z,101443.38
2023-01-27T03:31:43.622Z,101445.00
2023-01-27T03:37:31.854Z,101464.69
2023-01-27T03:43:18.120Z,101441.81
2023-01-27T03:48:50.806Z,101431.78
2023-01-27T03:54:21.223Z,101440.09
2023-01-27T03:59:49.683Z,101422.59
2023-01-27T04:05:35.828Z,101426.69
2023-01-27T08:04:52.506Z,101363.22
2023-01-27T08:10:18.920Z,101343.41
2023-01-27T08:15:42.922Z,101351.69
2023-01-27T08:21:11.556Z,101357.97
2023-01-27T08:26:36.226Z,101369.13
2023-01-27T08:32:04.876Z,101345.56
2023-01-27T08:37:35.310Z,101346.53
2023-01-27T08:43:05.097Z,101345.03
2023-01-27T08:48:34.716Z,101335.88
2023-01-27T08:54:05.469Z,101316.81
2023-01-27T08:59:35.177Z,101308.47
2023-01-27T09:04:59.029Z,101312.13
2023-01-27T09:10:26.866Z,101309.78
2023-01-27T09:15:55.829Z,101309.19
2023-01-27T09:21:18.936Z,101301.09
2023-01-27T09:26:44.905Z,101278.44
2023-01-27T09:32:12.527Z,101295.09
2023-01-27T09:37:48.016Z,101288.94
2023-01-27T09:43:35.684Z,101300.97
2023-01-27T09:49:28.783Z,101293.78
2023-01-27T09:55:04.427Z,101269.94
2023-01-27T10:00:39.087Z,101261.81
2023-01-27T10:06:28.165Z,101255.41
2023-01-27T10:12:04.154Z,101258.50
2023-01-27T10:17:48.042Z,101251.50
2023-01-27T10:23:30.935Z,101243.63
2023-01-27T10:29:09.691Z,101247.28
2023-01-27T10:34:49.894Z,101240.53
2023-01-27T10:40:27.292Z,101237.56
2023-01-27T10:46:05.714Z,101225.59
2023-01-27T10:51:41.376Z,101221.09
2023-01-27T10:57:15.992Z,101211.81
2023-01-27T11:02:52.977Z,101220.25
2023-01-27T11:08:28.073Z,101202.38
2023-01-27T11:14:04.842Z,101187.59
2023-01-27T11:19:57.765Z,101184.50
2023-01-27T11:25:35.584Z,101192.09
2023-01-27T11:31:12.887Z,101184.47
2023-01-27T11:36:41.811Z,101189.00
2023-01-27T11:42:13.294Z,101183.50
2023-01-27T11:47:44.386Z,101180.38
2023-01-27T11:53:17.976Z,101192.66
2023-01-27T11:58:52.752Z,101184.63
2023-01-27T12:04:27.002Z,101174.06
2023-01-27T12:09:56.054Z,101163.59
2023-01-27T12:15:29.213Z,101148.63
2023-01-27T12:21:01.273Z,101138.41
2023-01-27T12:26:36.842Z,101123.44
2023-01-27T12:32:16.184Z,101136.94
2023-01-27T12:37:45.224Z,101144.38
2023-01-27T12:43:16.069Z,101139.34
2023-01-27T12:48:50.734Z,101135.94
2023-01-27T12:54:23.437Z,101143.22
2023-01-27T12:59:56.704Z,101138.66
2023-01-27T17:08:35.512Z,101141.59
2023-01-27T17:14:21.342Z,101121.66
2023-01-27T17:19:56.642Z,101114.50
2023-01-27T17:25:31.874Z,101120.97
2023-01-27T17:31:07.520Z,101111.56
2023-01-27T17:36:39.449Z,101113.94
2023-01-27T17:42:05.125Z,101116.06
2023-01-27T17:47:32.195Z,101110.28
2023-01-27T17:53:03.698Z,101103.13
2023-01-27T17:58:29.785Z,101098.72
2023-01-27T18:03:58.629Z,101098.78
2023-01-27T18:09:28.420Z,101097.50
2023-01-27T18:14:59.753Z,101107.03
2023-01-27T18:20:30.103Z,101090.44
2023-01-27T18:26:04.919Z,101089.53
2023-01-27T18:31:39.740Z,101092.03
2023-01-27T18:37:26.201Z,101090.34
2023-01-27T18:42:58.584Z,101094.94
2023-01-27T18:48:23.493Z,101092.41
2023-01-27T18:53:52.844Z,101078.50
2023-01-27T18:59:25.950Z,101076.50
2023-01-27T19:04:58.466Z,101077.13
2023-01-27T19:10:43.441Z,101073.81
2023-01-27T19:16:12.147Z,101065.34
2023-01-27T19:21:43.046Z,101068.16
2023-01-27T19:27:13.295Z,101070.22
2023-01-27T19:32:42.438Z,101065.91
2023-01-27T19:38:13.966Z,101060.97
2023-01-27T19:43:42.773Z,101056.50
2023-01-27T19:49:17.020Z,101062.66
2023-01-27T19:54:47.000Z,101058.72
2023-01-27T20:00:24.810Z,101054.38
2023-01-27T20:05:53.565Z,101047.38
2023-01-27T20:11:32.696Z,101046.72
2023-01-27T20:17:01.657Z,101048.06
2023-01-27T20:22:30.469Z,101043.69
2023-01-27T20:28:03.517Z,101044.53
2023-01-27T20:33:32.711Z,101050.13
2023-01-27T20:39:01.896Z,101050.25
2023-01-27T20:44:32.202Z,101038.44
2023-01-27T20:50:01.545Z,101043.38
2023-01-27T20:55:31.414Z,101038.31
2023-01-27T21:01:09.789Z,101038.31
2023-01-27T21:06:38.592Z,101027.94
2023-01-27T21:12:08.012Z,101025.28
2023-01-27T21:17:38.528Z,101034.59
2023-01-27T21:23:07.537Z,101031.44
2023-01-27T21:28:37.178Z,101028.44
2023-01-27T21:34:10.258Z,101015.44
2023-01-27T21:39:39.669Z,100996.31
2023-01-27T21:45:18.223Z,100997.31
2023-01-27T21:50:52.963Z,100993.81
2023-01-27T21:56:23.802Z,100987.16
2023-01-27T22:01:55.297Z,100985.22
